Time;durP1;ratioP1;P1;durP2;ratioP2;P2;SDS_P1;SDS_P2;PMS_P1;PMS_P2;Temp;Humidity;BMP_temperature;BMP_pressure;BME280_temperature;BME280_humidity;BME280_pressure;Samples;Min_cycle;Max_cycle;Signal;HPM_P1;HPM_P2
2023/02/16 00:04:39;;;;;;;38.08;19.73;;;;;;;1.00;76.71;98850.88;10477870;28;20740;-76
2023/02/16 00:10:00;;;;;;;37.33;18.48;;;;;;;1.00;76.65;98855.63;10478047;28;20551;-76
2023/02/16 00:15:21;;;;;;;34.63;18.27;;;;;;;1.00;77.05;98850.13;10464285;28;20097;-75
2023/02/16 00:20:42;;;;;;;36.50;17.83;;;;;;;1.01;76.79;98838.63;10492306;28;20478;-76
2023/02/16 00:26:03;;;;;;;36.58;18.20;;;;;;;1.03;76.81;98849.09;10478161;28;20036;-76
2023/02/16 00:31:26;;;;;;;36.50;18.17;;;;;;;1.03;76.57;98849.09;10479248;28;20040;-76
2023/02/16 00:36:48;;;;;;;42.35;20.02;;;;;;;0.99;77.72;98854.13;10479351;28;20040;-76
2023/02/16 00:42:23;;;;;;;38.45;19.70;;;;;;;1.03;76.71;98862.84;10478780;28;20040;-76
2023/02/16 00:47:45;;;;;;;37.55;18.48;;;;;;;1.05;76.99;98841.09;10464219;28;20040;-76
2023/02/16 00:53:06;;;;;;;38.95;18.85;;;;;;;1.03;76.75;98843.63;10492213;28;20041;-76
2023/02/16 00:58:32;;;;;;;39.00;19.77;;;;;;;1.06;77.35;98853.59;10478742;28;20045;-76
2023/02/16 01:03:53;;;;;;;40.33;18.77;;;;;;;1.12;76.90;98857.84;10482117;28;20422;-75
2023/02/16 01:14:57;;;;;;;41.97;20.73;;;;;;;1.16;76.84;98832.84;10475705;28;20475;-76
2023/02/16 01:20:20;;;;;;;40.72;20.17;;;;;;;1.13;76.46;98833.84;10442534;28;20052;-76
2023/02/16 01:25:41;;;;;;;42.75;20.60;;;;;;;1.09;76.94;98836.09;10444223;28;20053;-75
2023/02/16 01:31:02;;;;;;;41.15;19.95;;;;;;;0.94;76.86;98830.88;10474354;28;20101;-75
2023/02/16 01:36:28;;;;;;;41.83;21.92;;;;;;;0.98;76.67;98827.88;10474542;28;20491;-75
2023/02/16 01:42:00;;;;;;;40.05;20.35;;;;;;;0.95;76.85;98821.38;10473690;28;20044;-75
2023/02/16 01:47:48;;;;;;;36.95;19.02;;;;;;;0.95;76.27;98815.13;10474468;28;20040;-75
2023/02/16 01:53:21;;;;;;;33.35;17.60;;;;;;;0.84;75.95;98805.66;10473386;28;20048;-75
2023/02/16 01:58:49;;;;;;;36.85;18.25;;;;;;;0.70;76.78;98809.44;10446236;28;20045;-75
2023/02/16 02:10:02;;;;;;;33.10;15.77;;;;;;;0.71;77.02;98783.47;10489350;28;20045;-75
2023/02/16 02:15:25;;;;;;;34.13;16.90;;;;;;;0.71;77.01;98786.22;10485796;28;20047;-75
2023/02/16 02:27:28;;;;;;;28.50;15.23;;;;;;;0.72;76.58;98787.69;10499805;28;20055;-75
2023/02/16 02:33:16;;;;;;;28.52;14.65;;;;;;;0.69;75.69;98791.47;10488163;28;20048;-75
2023/02/16 02:39:14;;;;;;;29.38;15.85;;;;;;;0.62;75.93;98767.22;10471672;28;20047;-75
2023/02/16 02:44:48;;;;;;;29.42;15.05;;;;;;;0.57;76.19;98762.47;10485007;28;20044;-75
2023/02/16 02:50:41;;;;;;;26.63;14.68;;;;;;;0.56;76.47;98763.75;10485230;28;20102;-75
2023/02/16 03:01:44;;;;;;;30.52;15.82;;;;;;;0.53;76.96;98751.75;10486829;28;20075;-75
2023/02/16 03:07:06;;;;;;;32.30;15.10;;;;;;;0.57;76.96;98746.00;10456739;28;20048;-75
2023/02/16 03:12:46;;;;;;;37.60;18.60;;;;;;;0.64;76.92;98755.72;10456823;28;20055;-75
2023/02/16 03:29:26;;;;;;;34.05;17.65;;;;;;;0.74;77.10;98756.97;10474518;28;20037;-75
2023/02/16 03:34:47;;;;;;;37.17;18.65;;;;;;;0.73;76.82;98750.72;10455655;28;20390;-75
2023/02/16 03:40:28;;;;;;;35.88;17.25;;;;;;;0.72;77.07;98748.47;10483343;28;20045;-75
2023/02/16 03:45:49;;;;;;;36.05;18.15;;;;;;;0.61;76.83;98752.00;10460138;28;20066;-75
2023/02/16 03:51:10;;;;;;;32.88;16.27;;;;;;;0.64;76.94;98755.72;10455223;28;20398;-75
2023/02/16 03:56:31;;;;;;;33.28;17.42;;;;;;;0.61;76.92;98760.25;10455050;28;20078;-75
2023/02/16 04:01:51;;;;;;;34.40;16.48;;;;;;;0.57;77.04;98744.00;10454909;28;20398;-75
2023/02/16 04:07:12;;;;;;;28.08;14.15;;;;;;;0.66;76.78;98755.97;10455226;28;20044;-75
2023/02/16 04:12:36;;;;;;;37.63;17.70;;;;;;;0.64;76.95;98750.97;10455020;28;20444;-75
2023/02/16 04:17:57;;;;;;;32.30;17.03;;;;;;;0.69;77.00;98766.72;10442087;28;20037;-75
2023/02/16 04:23:18;;;;;;;30.65;15.68;;;;;;;0.69;76.87;98766.72;10454591;28;20084;-75
2023/02/16 04:28:38;;;;;;;35.45;18.17;;;;;;;0.63;76.65;98760.47;10454631;28;20452;-75
2023/02/16 04:33:59;;;;;;;32.50;15.65;;;;;;;0.60;76.47;98758.75;10440510;28;20409;-75
2023/02/16 04:39:20;;;;;;;33.13;16.27;;;;;;;0.58;76.70;98742.03;10457055;28;20441;-76
2023/02/16 04:44:42;;;;;;;31.80;15.82;;;;;;;0.48;76.17;98738.03;10473268;28;20075;-75
2023/02/16 04:50:03;;;;;;;32.10;16.02;;;;;;;0.38;76.62;98742.28;10445343;28;20041;-76
2023/02/16 04:55:24;;;;;;;32.97;16.35;;;;;;;0.39;76.95;98738.31;10472802;28;20475;-75
2023/02/16 05:00:45;;;;;;;33.17;17.88;;;;;;;0.36;76.99;98734.56;10458469;28;20033;-76
2023/02/16 05:06:06;;;;;;;33.22;16.35;;;;;;;0.34;77.64;98730.81;10452820;28;20507;-75
2023/02/16 05:17:10;;;;;;;31.17;15.77;;;;;;;-0.02;77.21;98730.59;10458291;28;20390;-76
2023/02/16 05:22:34;;;;;;;33.35;17.15;;;;;;;-0.17;77.68;98732.84;10455942;28;20494;-75
2023/02/16 05:27:55;;;;;;;;;;;;;;;-0.24;77.88;98727.84;10444949;28;20033;-76
2023/02/16 05:33:16;;;;;;;32.60;15.30;;;;;;;-0.30;78.28;98714.09;10453991;28;19943;-76
2023/02/16 05:38:37;;;;;;;38.35;17.58;;;;;;;-0.28;78.49;98730.09;10458610;28;20037;-76
2023/02/16 05:43:59;;;;;;;39.03;19.30;;;;;;;-0.20;78.49;98728.31;10444940;28;20407;-76
2023/02/16 05:49:20;;;;;;;35.55;17.67;;;;;;;-0.32;78.04;98730.31;10456722;28;20454;-76
2023/02/16 05:54:41;;;;;;;34.88;17.27;;;;;;;-0.22;78.17;98737.06;10459309;28;20044;-78
2023/02/16 06:00:03;;;;;;;36.15;18.25;;;;;;;-0.21;79.08;98743.28;10473140;28;20086;-78
2023/02/16 06:05:24;;;;;;;35.85;17.52;;;;;;;-0.11;79.00;98752.78;10472648;28;20056;-76
2023/02/16 06:10:45;;;;;;;37.72;19.00;;;;;;;0.02;78.63;98755.81;10443005;28;20052;-78
2023/02/16 06:16:07;;;;;;;37.70;17.40;;;;;;;-0.03;78.44;98751.03;10453728;28;20048;-78
2023/02/16 06:21:28;;;;;;;38.42;17.95;;;;;;;0.00;78.77;98750.06;10442716;28;20051;-77
2023/02/16 06:26:49;;;;;;;39.88;18.92;;;;;;;-0.02;78.61;98755.28;10458319;28;20051;-77
2023/02/16 06:32:09;;;;;;;38.80;18.45;;;;;;;0.09;78.02;98766.25;10471760;28;20045;-77
2023/02/16 06:37:31;;;;;;;42.88;19.10;;;;;;;0.16;79.00;98765.78;10444331;28;20049;-77
2023/02/16 06:42:51;;;;;;;39.63;19.48;;;;;;;0.22;78.90;98763.78;10457373;28;20044;-77
2023/02/16 06:48:13;;;;;;;39.35;18.67;;;;;;;0.25;78.11;98762.03;10457335;28;20047;-77
2023/02/16 06:53:33;;;;;;;39.13;18.17;;;;;;;0.31;78.33;98764.78;10456588;28;20422;-75
2023/02/16 06:58:54;;;;;;;35.38;17.60;;;;;;;0.45;78.04;98766.50;10428567;28;20105;-74
2023/02/16 07:04:15;;;;;;;37.70;19.17;;;;;;;0.60;77.78;98767.00;10416503;28;20053;-74
2023/02/16 07:09:36;;;;;;;31.95;17.55;;;;;;;0.99;77.61;98769.66;10442726;28;20048;-75
2023/02/16 07:14:57;;;;;;;32.08;17.40;;;;;;;1.19;77.14;98767.81;10449456;28;20048;-75
2023/02/16 07:20:18;;;;;;;35.40;18.30;;;;;;;1.53;76.99;98760.13;10442161;28;20123;-75
2023/02/16 07:25:39;;;;;;;30.90;17.58;;;;;;;2.27;75.83;98767.41;10453800;28;20041;-75
2023/02/16 07:31:10;;;;;;;36.42;19.23;;;;;;;3.15;74.87;98759.47;10453200;28;20052;-75
2023/02/16 07:36:32;;;;;;;32.67;18.50;;;;;;;4.60;73.06;98761.34;10456055;28;20055;-76
2023/02/16 07:41:53;;;;;;;38.63;21.15;;;;;;;7.29;71.16;98766.31;10455814;28;20037;-74
2023/02/16 07:47:14;;;;;;;36.40;19.88;;;;;;;9.17;66.89;98754.50;10455223;28;20048;-74
2023/02/16 07:52:34;;;;;;;33.67;20.45;;;;;;;11.04;61.65;98750.84;10467859;28;20044;-74
2023/02/16 07:57:55;;;;;;;33.10;21.10;;;;;;;13.44;52.89;98758.13;10469198;28;20044;-74
2023/02/16 08:03:16;;;;;;;37.40;23.10;;;;;;;13.75;46.35;98751.88;10496777;28;20052;-74
2023/02/16 08:08:38;;;;;;;34.47;21.98;;;;;;;12.04;41.68;98748.31;10468941;28;20036;-74
2023/02/16 08:13:59;;;;;;;36.97;23.35;;;;;;;11.55;51.51;98746.53;10492101;28;20118;-74
2023/02/16 08:19:20;;;;;;;36.33;23.70;;;;;;;10.60;43.58;98754.22;10482423;28;20044;-74
2023/02/16 08:24:42;;;;;;;40.25;24.08;;;;;;;11.66;47.40;98754.41;10495947;28;20041;-74
2023/02/16 08:30:03;;;;;;;40.40;22.83;;;;;;;10.43;44.97;98762.59;10496103;28;20044;-74
2023/02/16 08:35:25;;;;;;;40.03;23.38;;;;;;;9.08;48.11;98760.63;10468219;28;20048;-74
2023/02/16 08:40:49;;;;;;;37.28;23.20;;;;;;;7.46;49.99;98752.69;10481979;28;20094;-74
2023/02/16 08:46:10;;;;;;;38.25;23.48;;;;;;;7.98;51.87;98756.16;10482081;28;20040;-74
2023/02/16 08:51:33;;;;;;;36.00;22.88;;;;;;;13.87;48.04;98766.75;10467953;28;20102;-75
2023/02/16 08:56:55;;;;;;;35.87;23.07;;;;;;;19.59;35.87;98766.28;10481490;28;20047;-75
2023/02/16 09:02:16;;;;;;;30.50;21.67;;;;;;;22.12;34.18;98758.09;10481233;28;20290;-74
2023/02/16 09:07:38;;;;;;;29.73;21.08;;;;;;;23.92;29.39;98768.59;10481518;28;20040;-73
2023/02/16 09:12:59;;;;;;;29.48;20.13;;;;;;;26.52;28.95;98763.94;10481047;28;20074;-75
2023/02/16 09:18:20;;;;;;;30.55;21.38;;;;;;;28.31;24.68;98756.97;10481224;28;20398;-75
2023/02/16 09:23:43;;;;;;;25.20;19.80;;;;;;;27.78;24.53;98759.06;10464996;28;20090;-75
2023/02/16 09:29:05;;;;;;;26.92;19.77;;;;;;;26.69;22.81;98753.53;10488292;28;20435;-75
2023/02/16 09:34:30;;;;;;;26.05;18.00;;;;;;;27.61;22.04;98746.59;10474727;28;20045;-75
2023/02/16 09:39:55;;;;;;;21.48;17.48;;;;;;;27.20;19.67;98757.38;10488363;28;20040;-75
2023/02/16 09:45:17;;;;;;;27.83;19.15;;;;;;;27.91;20.47;98758.56;10487705;28;20041;-74
2023/02/16 09:50:38;;;;;;;25.27;18.77;;;;;;;28.46;18.78;98761.44;10459844;28;20041;-75
2023/02/16 09:56:24;;;;;;;26.58;19.30;;;;;;;28.26;18.67;98747.53;10489477;28;20076;-75
2023/02/16 10:01:47;;;;;;;26.23;20.08;;;;;;;27.29;17.47;98750.34;10472980;28;20490;-75
2023/02/16 10:07:26;;;;;;;28.80;21.38;;;;;;;26.09;17.77;98741.53;10473559;28;20485;-75
2023/02/16 10:13:08;;;;;;;26.60;19.80;;;;;;;24.98;18.93;98751.69;10465108;28;20043;-74
2023/02/16 10:18:39;;;;;;;20.27;16.20;;;;;;;24.37;19.50;98744.31;10473208;28;20398;-74
2023/02/16 10:24:02;;;;;;;23.63;18.77;;;;;;;22.15;21.22;98734.03;10447149;28;20041;-75
2023/02/16 10:29:24;;;;;;;19.27;14.65;;;;;;;21.60;22.20;98726.22;10400920;28;20103;-75
2023/02/16 10:34:48;;;;;;;18.25;14.30;;;;;;;21.17;23.49;98738.66;10430339;28;20048;-75
2023/02/16 10:40:26;;;;;;;20.15;14.75;;;;;;;20.85;23.80;98723.84;10458794;28;20090;-76
2023/02/16 10:45:54;;;;;;;19.30;14.95;;;;;;;21.00;24.49;98714.53;10430563;28;20049;-75
2023/02/16 10:51:15;;;;;;;20.50;15.45;;;;;;;20.91;24.44;98706.34;10420049;28;20072;-75
2023/02/16 10:56:36;;;;;;;19.02;14.57;;;;;;;20.26;25.48;98704.22;10456212;28;20051;-75
2023/02/16 11:01:58;;;;;;;20.83;15.52;;;;;;;19.45;25.49;98704.03;10498682;28;20072;-75
2023/02/16 11:07:21;;;;;;;23.95;15.23;;;;;;;18.60;26.20;98701.25;10470232;28;20079;-75
2023/02/16 11:12:41;;;;;;;29.42;20.60;;;;;;;17.87;26.56;98693.88;10468882;28;20087;-75
2023/02/16 11:18:05;;;;;;;32.63;19.92;;;;;;;17.85;27.22;98690.91;10483800;28;20040;-75
2023/02/16 11:23:30;;;;;;;29.98;20.42;;;;;;;17.15;26.98;98678.63;10470081;28;20366;-75
2023/02/16 11:28:52;;;;;;;27.08;19.80;;;;;;;16.54;28.11;98672.28;10470229;28;20128;-75
2023/02/16 11:34:23;;;;;;;36.78;21.20;;;;;;;16.27;29.67;98672.78;10469429;28;20067;-75
2023/02/16 11:39:50;;;;;;;39.75;20.33;;;;;;;16.23;29.59;98663.38;10471351;28;20045;-76
2023/02/16 11:45:23;;;;;;;37.88;21.75;;;;;;;15.74;29.97;98661.16;10457647;28;20393;-76
2023/02/16 11:51:05;;;;;;;35.70;21.02;;;;;;;15.63;30.83;98649.84;10498537;28;20060;-75
2023/02/16 11:56:28;;;;;;;33.60;22.02;;;;;;;15.28;31.54;98641.31;10470073;28;20443;-75
2023/02/16 12:02:21;;;;;;;34.20;20.67;;;;;;;15.37;31.45;98643.28;10483323;28;20052;-76
2023/02/16 12:08:13;;;;;;;33.67;20.02;;;;;;;15.38;31.36;98639.88;10458193;28;20057;-75
2023/02/16 12:13:43;;;;;;;32.45;21.15;;;;;;;14.67;32.53;98632.53;10458666;28;20037;-77
2023/02/16 12:19:17;;;;;;;40.42;22.10;;;;;;;13.89;34.57;98615.34;10468520;28;20068;-73
2023/02/16 12:25:11;;;;;;;;;;;;;;;13.85;34.23;98605.94;10482592;28;20033;-73
2023/02/16 12:30:43;;;;;;;30.65;20.08;;;;;;;13.92;34.77;98599.41;10493294;28;19920;-73
2023/02/16 12:36:20;;;;;;;33.70;19.92;;;;;;;13.47;34.43;98579.50;10455613;28;20044;-73
2023/02/16 12:42:18;;;;;;;31.45;19.85;;;;;;;13.63;35.25;98571.47;10483425;28;20044;-74
2023/02/16 12:47:46;;;;;;;20.23;12.82;;;;;;;14.08;34.53;98575.22;10496549;28;20106;-73
2023/02/16 12:53:26;;;;;;;18.75;12.10;;;;;;;14.68;33.87;98555.31;10441530;28;20048;-76
2023/02/16 12:58:52;;;;;;;19.77;11.65;;;;;;;14.92;33.49;98550.50;10474883;28;20071;-76
2023/02/16 13:04:22;;;;;;;18.80;12.02;;;;;;;14.93;33.13;98554.03;10490463;28;20080;-72
2023/02/16 13:10:01;;;;;;;17.63;11.05;;;;;;;15.10;33.36;98545.28;10504007;28;20036;-72
2023/02/16 13:15:26;;;;;;;16.95;10.90;;;;;;;15.05;32.75;98541.47;10502933;28;20044;-72
2023/02/16 13:20:52;;;;;;;14.85;9.77;;;;;;;14.89;33.22;98534.84;10501464;28;20382;-73
2023/02/16 13:26:40;;;;;;;15.00;9.25;;;;;;;14.86;33.02;98533.22;10488990;28;20052;-75
2023/02/16 13:32:09;;;;;;;19.67;11.30;;;;;;;14.81;32.88;98539.94;10493145;28;20520;-76
2023/02/16 13:37:33;;;;;;;18.50;11.13;;;;;;;14.62;33.30;98535.25;10502944;28;20040;-71
2023/02/16 13:43:25;;;;;;;19.15;10.95;;;;;;;14.43;33.71;98522.06;10501754;28;20052;-72
2023/02/16 13:48:47;;;;;;;18.10;11.63;;;;;;;14.31;33.54;98527.63;10487876;28;20040;-71
2023/02/16 13:54:25;;;;;;;19.25;11.00;;;;;;;14.24;34.09;98516.59;10473720;28;20049;-71
2023/02/16 13:59:48;;;;;;;20.45;12.25;;;;;;;14.13;34.06;98518.00;10488098;28;20111;-71
2023/02/16 14:05:09;;;;;;;17.42;11.93;;;;;;;13.85;34.57;98536.50;10501687;28;20482;-76
2023/02/16 14:10:54;;;;;;;20.50;12.70;;;;;;;13.59;34.99;98537.50;10486540;28;20071;-72
2023/02/16 14:16:15;;;;;;;19.08;12.60;;;;;;;13.46;35.71;98547.91;10501471;28;20056;-72
2023/02/16 14:21:47;;;;;;;17.40;12.15;;;;;;;13.39;36.20;98536.88;10501418;28;20521;-72
2023/02/16 14:27:10;;;;;;;19.33;12.93;;;;;;;13.03;36.76;98544.19;10487010;28;20094;-76
2023/02/16 14:32:37;;;;;;;20.53;13.03;;;;;;;12.66;36.91;98545.72;10487098;28;20044;-76
2023/02/16 14:37:58;;;;;;;21.17;12.27;;;;;;;12.32;37.55;98545.41;10501505;28;20098;-75
2023/02/16 14:43:42;;;;;;;16.92;11.70;;;;;;;12.12;38.19;98548.78;10500872;28;20041;-76
2023/02/16 14:49:22;;;;;;;;;;;;;;;11.84;39.38;98536.94;10490222;28;20478;-76
2023/02/16 14:54:56;;;;;;;18.65;12.75;;;;;;;11.62;39.26;98544.38;10502200;28;19921;-76
2023/02/16 15:00:23;;;;;;;43.22;24.42;;;;;;;11.22;40.37;98550.38;10501071;28;20505;-76
2023/02/16 15:06:05;;;;;;;43.30;24.55;;;;;;;10.89;42.16;98552.69;10500543;28;20060;-76
2023/02/16 15:17:32;;;;;;;44.83;24.52;;;;;;;10.03;44.93;98548.59;10503606;28;20048;-76
2023/02/16 15:22:55;;;;;;;41.03;24.35;;;;;;;9.68;44.46;98547.06;10498904;28;20126;-75
2023/02/16 15:28:20;;;;;;;40.38;24.45;;;;;;;9.41;45.38;98549.66;10471034;28;20037;-73
2023/02/16 15:33:41;;;;;;;45.47;25.90;;;;;;;9.29;46.74;98554.97;10498826;28;20102;-73
2023/02/16 15:39:29;;;;;;;45.25;25.85;;;;;;;8.86;48.72;98542.94;10486085;28;20485;-73
2023/02/16 15:45:26;;;;;;;40.97;23.83;;;;;;;8.37;49.29;98542.75;10486197;28;20040;-73
2023/02/16 15:50:47;;;;;;;41.50;22.77;;;;;;;8.06;48.21;98539.28;10483482;28;20106;-73
2023/02/16 15:56:27;;;;;;;42.25;24.00;;;;;;;7.90;50.48;98541.34;10497487;28;20048;-73
2023/02/16 16:01:48;;;;;;;40.00;23.30;;;;;;;7.58;48.61;98534.34;10496968;28;20059;-73
2023/02/16 16:07:12;;;;;;;41.70;23.83;;;;;;;7.46;49.79;98542.31;10454956;28;20047;-73
2023/02/16 16:12:33;;;;;;;45.25;23.80;;;;;;;7.27;50.69;98535.63;10469270;28;20094;-73
2023/02/16 16:17:54;;;;;;;44.25;22.13;;;;;;;7.11;49.99;98527.25;10482767;28;20044;-73
2023/02/16 16:23:15;;;;;;;42.08;24.02;;;;;;;7.00;50.48;98530.38;10455200;28;20037;-73
2023/02/16 16:28:36;;;;;;;42.25;24.88;;;;;;;6.91;50.73;98530.91;10482576;28;20504;-73
2023/02/16 16:34:08;;;;;;;50.78;26.02;;;;;;;6.78;51.53;98540.13;10472144;28;20045;-71
2023/02/16 16:39:31;;;;;;;52.17;25.88;;;;;;;6.66;51.84;98539.00;10474171;28;20074;-76
2023/02/16 16:45:20;;;;;;;48.25;24.42;;;;;;;6.44;53.77;98548.69;10471182;28;20048;-76
2023/02/16 16:50:42;;;;;;;42.88;24.00;;;;;;;6.27;52.81;98543.63;10472179;28;20044;-73
2023/02/16 16:56:10;;;;;;;41.88;24.17;;;;;;;6.15;53.35;98545.22;10475258;28;20044;-75
2023/02/16 17:01:31;;;;;;;45.15;25.88;;;;;;;6.09;53.72;98544.63;10462069;28;20059;-77
2023/02/16 17:06:52;;;;;;;44.72;26.52;;;;;;;5.97;54.17;98558.03;10446382;28;20675;-76
2023/02/16 17:12:14;;;;;;;52.00;26.83;;;;;;;5.93;54.90;98557.63;10460939;28;20135;-74
2023/02/16 17:17:34;;;;;;;46.15;26.08;;;;;;;5.85;55.64;98562.34;10461148;28;20048;-75
2023/02/16 17:22:57;;;;;;;53.92;28.90;;;;;;;5.77;55.08;98556.00;10460267;28;20090;-75
2023/02/16 17:28:18;;;;;;;56.15;28.75;;;;;;;5.68;55.42;98573.13;10446768;28;20502;-75
2023/02/16 17:33:40;;;;;;;58.63;29.48;;;;;;;5.62;56.38;98570.50;10448460;28;20037;-75
2023/02/16 17:39:01;;;;;;;53.40;27.00;;;;;;;5.63;56.77;98571.25;10460441;28;20041;-76
2023/02/16 17:44:21;;;;;;;52.58;27.50;;;;;;;5.58;56.81;98578.38;10486813;28;20486;-77
2023/02/16 17:49:42;;;;;;;57.40;26.95;;;;;;;5.57;56.99;98576.16;10446324;28;20040;-75
2023/02/16 17:55:04;;;;;;;61.85;31.83;;;;;;;5.49;57.60;98575.34;10460307;28;20106;-75
2023/02/16 18:00:25;;;;;;;62.85;32.00;;;;;;;5.35;57.37;98569.88;10472273;28;20075;-74
2023/02/16 18:05:45;;;;;;;52.13;29.10;;;;;;;5.38;58.32;98574.34;10453113;28;20056;-73
2023/02/16 18:11:06;;;;;;;53.33;26.40;;;;;;;5.44;57.67;98580.50;10459239;28;20044;-74
2023/02/16 18:16:27;;;;;;;41.97;22.40;;;;;;;5.52;57.59;98563.94;10458921;28;20049;-74
2023/02/16 18:21:48;;;;;;;34.55;17.80;;;;;;;5.62;57.55;98567.00;10472327;28;20485;-73
2023/02/16 18:27:09;;;;;;;29.63;18.48;;;;;;;5.78;58.20;98568.56;10458205;28;20045;-73
2023/02/16 18:32:30;;;;;;;26.63;16.50;;;;;;;5.97;57.63;98571.13;10472130;28;20044;-72
2023/02/16 18:37:51;;;;;;;30.33;17.80;;;;;;;6.03;57.56;98564.19;10457925;28;20437;-72
2023/02/16 18:43:12;;;;;;;29.02;17.60;;;;;;;6.07;57.58;98568.63;10457891;28;20040;-72
2023/02/16 18:48:33;;;;;;;32.63;20.42;;;;;;;6.08;58.13;98567.34;10485526;28;20040;-72
2023/02/16 18:53:56;;;;;;;30.52;19.02;;;;;;;6.14;57.87;98556.84;10457366;28;20071;-72
2023/02/16 18:59:17;;;;;;;29.35;18.17;;;;;;;6.18;57.81;98560.75;10470310;28;20045;-75
2023/02/16 19:04:39;;;;;;;27.65;17.73;;;;;;;6.26;57.80;98547.66;10475110;28;20056;-71
2023/02/16 19:10:00;;;;;;;28.33;18.02;;;;;;;6.40;58.14;98550.34;10457263;28;20048;-72
2023/02/16 19:15:21;;;;;;;27.05;17.50;;;;;;;6.58;58.11;98552.81;10470612;28;20098;-73
2023/02/16 19:20:43;;;;;;;26.95;16.00;;;;;;;6.71;58.02;98548.44;10470289;28;20437;-77
2023/02/16 19:26:09;;;;;;;31.48;18.00;;;;;;;6.82;57.69;98550.88;10470704;28;20058;-76
2023/02/16 19:31:34;;;;;;;31.00;17.38;;;;;;;6.94;58.03;98560.34;10486435;28;20045;-75
2023/02/16 19:36:55;;;;;;;27.58;16.52;;;;;;;6.98;57.86;98546.84;10485366;28;20097;-75
2023/02/16 19:42:16;;;;;;;26.92;16.30;;;;;;;7.02;58.16;98550.00;10483411;28;20040;-74
2023/02/16 19:47:37;;;;;;;24.27;16.00;;;;;;;7.01;57.84;98542.97;10483276;28;20102;-74
2023/02/16 19:53:01;;;;;;;24.45;15.77;;;;;;;6.98;57.97;98549.63;10497104;28;20490;-75
2023/02/16 19:58:26;;;;;;;27.77;16.98;;;;;;;6.96;58.65;98541.13;10485562;28;20123;-75
2023/02/16 20:03:47;;;;;;;28.52;17.15;;;;;;;6.97;58.51;98548.16;10498450;28;20056;-76
2023/02/16 20:09:11;;;;;;;25.90;16.15;;;;;;;6.98;58.88;98549.63;10455562;28;20082;-75
2023/02/16 20:14:34;;;;;;;30.80;17.77;;;;;;;6.94;58.86;98556.81;10458723;28;20044;-75
2023/02/16 20:19:58;;;;;;;31.55;19.58;;;;;;;6.92;59.10;98562.94;10471119;28;20041;-75
2023/02/16 20:25:20;;;;;;;31.23;17.77;;;;;;;6.88;59.46;98563.28;10466750;28;20047;-74
2023/02/16 20:30:41;;;;;;;26.17;15.85;;;;;;;6.95;59.48;98567.41;10452254;28;20044;-75
2023/02/16 20:36:03;;;;;;;25.42;15.95;;;;;;;7.02;59.23;98560.38;10466677;28;20070;-74
2023/02/16 20:41:25;;;;;;;30.33;19.13;;;;;;;6.96;59.64;98563.31;10465158;28;20127;-75
2023/02/16 20:46:46;;;;;;;26.05;16.48;;;;;;;6.86;59.79;98545.72;10437542;28;20048;-75
2023/02/16 20:52:09;;;;;;;25.30;16.13;;;;;;;6.74;60.07;98547.31;10464641;28;20045;-74
2023/02/16 20:57:30;;;;;;;26.80;15.80;;;;;;;6.67;60.15;98542.50;10465331;28;20052;-74
2023/02/16 21:02:52;;;;;;;25.67;16.33;;;;;;;6.58;61.01;98546.53;10467543;28;20056;-74
2023/02/16 21:08:13;;;;;;;26.63;16.80;;;;;;;6.49;60.88;98536.69;10481449;28;20044;-74
2023/02/16 21:13:34;;;;;;;28.73;17.60;;;;;;;6.53;61.10;98541.88;10481253;28;20036;-74
2023/02/16 21:18:55;;;;;;;26.92;16.70;;;;;;;6.62;60.98;98546.19;10482861;28;20071;-74
2023/02/16 21:24:16;;;;;;;31.30;18.10;;;;;;;6.73;60.94;98543.81;10460941;28;20048;-75
2023/02/16 21:29:37;;;;;;;28.05;17.77;;;;;;;6.82;61.18;98531.44;10488640;28;20047;-75
2023/02/16 21:34:58;;;;;;;25.88;16.40;;;;;;;6.86;60.59;98526.28;10461199;28;20052;-74
2023/02/16 21:45:59;;;;;;;30.63;17.73;;;;;;;6.90;60.90;98518.34;10476549;28;20463;-74
2023/02/16 21:51:23;;;;;;;28.27;16.35;;;;;;;7.02;61.19;98511.13;10487521;28;20395;-74
2023/02/16 21:56:49;;;;;;;25.65;16.67;;;;;;;7.10;60.35;98516.72;10488093;28;20049;-74
2023/02/16 22:02:10;;;;;;;26.42;16.42;;;;;;;7.17;61.23;98516.72;10460080;28;20105;-74
2023/02/16 22:07:32;;;;;;;24.65;16.20;;;;;;;7.22;61.28;98511.53;10458694;28;20481;-74
2023/02/16 22:12:54;;;;;;;24.75;15.75;;;;;;;7.27;61.28;98518.97;10459939;28;20167;-74
2023/02/16 22:18:15;;;;;;;26.55;15.85;;;;;;;7.33;61.46;98527.84;10473172;28;20440;-74
2023/02/16 22:23:36;;;;;;;29.10;15.85;;;;;;;7.36;61.39;98526.75;10458954;28;20044;-75
2023/02/16 22:28:57;;;;;;;24.92;15.55;;;;;;;7.36;61.27;98521.19;10458369;28;20044;-75
2023/02/16 22:34:20;;;;;;;24.67;15.35;;;;;;;7.35;61.25;98514.91;10444352;28;20424;-75
2023/02/16 22:39:41;;;;;;;26.63;16.13;;;;;;;7.37;61.48;98517.13;10458508;28;20049;-75
2023/02/16 22:45:02;;;;;;;22.25;14.43;;;;;;;7.36;61.69;98521.94;10471684;28;20051;-74
2023/02/16 22:50:23;;;;;;;28.48;16.80;;;;;;;7.38;62.17;98519.34;10458155;28;20500;-75
2023/02/16 22:55:44;;;;;;;24.92;16.15;;;;;;;7.36;62.01;98508.03;10470867;28;20074;-75
2023/02/16 23:01:10;;;;;;;26.00;15.82;;;;;;;7.36;62.13;98496.94;10470914;28;20044;-75
2023/02/16 23:06:33;;;;;;;25.75;16.05;;;;;;;7.36;62.61;98493.41;10456760;28;20036;-75
2023/02/16 23:11:54;;;;;;;25.08;15.50;;;;;;;7.36;62.38;98476.75;10457391;28;20383;-75
2023/02/16 23:17:15;;;;;;;26.58;16.55;;;;;;;7.37;62.53;98473.41;10470544;28;20080;-74
2023/02/16 23:22:36;;;;;;;27.65;15.50;;;;;;;7.39;62.46;98467.28;10470503;28;20048;-75
2023/02/16 23:27:57;;;;;;;27.15;15.93;;;;;;;7.36;63.18;98468.41;10471559;28;20501;-74
2023/02/16 23:33:18;;;;;;;23.10;14.70;;;;;;;7.36;63.20;98463.59;10473662;28;20040;-75
2023/02/16 23:38:39;;;;;;;26.83;15.25;;;;;;;7.38;63.04;98454.72;10470593;28;20383;-74
2023/02/16 23:44:00;;;;;;;23.00;15.15;;;;;;;7.44;62.70;98455.28;10469552;28;20066;-74
2023/02/16 23:49:21;;;;;;;24.85;15.25;;;;;;;7.44;63.22;98455.28;10455691;28;20089;-75
2023/02/16 23:54:42;;;;;;;24.42;14.00;;;;;;;7.46;63.00;98452.66;10456025;28;20041;-74
